Time;durP1;ratioP1;P1;durP2;ratioP2;P2;SDS_P1;SDS_P2;PMS_P1;PMS_P2;Temp;Humidity;BMP_temperature;BMP_pressure;BME280_temperature;BME280_humidity;BME280_pressure;Samples;Min_cycle;Max_cycle;Signal;HPM_P1;HPM_P2
2022/11/11 00:01:04;;;;;;;10.82;3.90;;;;;;;;;;5015805;28;20536;-74
2022/11/11 00:03:29;;;;;;;8.63;4.07;;;;;;;;;;5031952;28;20044;-73
2022/11/11 00:05:58;;;;;;;10.27;4.00;;;;;;;;;;5034038;28;20033;-73
2022/11/11 00:08:24;;;;;;;10.82;4.82;;;;;;;;;;5030048;28;20022;-72
2022/11/11 00:10:49;;;;;;;7.57;3.88;;;;;;;;;;5031033;28;20049;-72
2022/11/11 00:13:14;;;;;;;7.10;4.38;;;;;;;;;;5015393;28;20112;-72
2022/11/11 00:15:40;;;;;;;11.50;4.13;;;;;;;;;;5030315;28;20297;-73
2022/11/11 00:26:16;;;;;;;8.77;3.50;;;;;;;;;;5031784;28;20092;-72
2022/11/11 00:28:42;;;;;;;7.53;4.03;;;;;;;;;;5033723;28;20041;-73
2022/11/11 00:31:08;;;;;;;8.25;4.20;;;;;;;;;;5032061;28;20052;-76
2022/11/11 00:33:33;;;;;;;6.65;3.75;;;;;;;;;;5027813;28;20025;-76
2022/11/11 00:35:59;;;;;;;9.60;3.77;;;;;;;;;;5015501;28;20026;-75
2022/11/11 00:41:09;;;;;;;4.20;3.00;;;;;;;;;;5031278;28;20029;-76
2022/11/11 00:43:34;;;;;;;8.90;3.28;;;;;;;;;;5015954;28;20087;-75
2022/11/11 00:51:27;;;;;;;9.82;3.40;;;;;;;;;;5032733;28;20124;-75
2022/11/11 00:53:52;;;;;;;9.35;3.67;;;;;;;;;;5033283;28;20108;-74
2022/11/11 00:56:17;;;;;;;8.63;3.45;;;;;;;;;;5028997;28;20265;-75
2022/11/11 00:58:42;;;;;;;7.47;3.33;;;;;;;;;;5005597;28;20026;-75
2022/11/11 01:01:08;;;;;;;10.90;2.90;;;;;;;;;;5027983;28;20033;-75
2022/11/11 01:03:33;;;;;;;9.93;3.93;;;;;;;;;;5015084;28;20287;-73
2022/11/11 01:06:02;;;;;;;9.43;4.60;;;;;;;;;;5013204;28;20351;-73
2022/11/11 01:08:27;;;;;;;6.87;3.93;;;;;;;;;;5040479;28;20318;-73
2022/11/11 01:10:52;;;;;;;7.20;3.33;;;;;;;;;;5030367;28;20477;-73
2022/11/11 01:13:22;;;;;;;10.07;3.33;;;;;;;;;;5033524;28;20026;-73
2022/11/11 01:15:49;;;;;;;10.13;3.88;;;;;;;;;;5033749;28;20040;-74
2022/11/11 01:18:15;;;;;;;5.72;3.05;;;;;;;;;;5023171;28;20022;-72
2022/11/11 01:20:41;;;;;;;4.38;2.78;;;;;;;;;;5012714;28;20026;-74
2022/11/11 01:23:07;;;;;;;6.60;3.33;;;;;;;;;;5027811;28;20121;-72
2022/11/11 01:25:36;;;;;;;8.23;3.70;;;;;;;;;;5012910;28;20366;-76
2022/11/11 01:28:01;;;;;;;7.30;2.95;;;;;;;;;;5030525;28;20083;-75
2022/11/11 01:30:27;;;;;;;8.93;3.38;;;;;;;;;;5014984;28;20490;-75
2022/11/11 01:32:52;;;;;;;9.35;3.60;;;;;;;;;;5029468;28;20029;-75
2022/11/11 01:35:17;;;;;;;8.27;3.17;;;;;;;;;;5014574;28;20376;-74
2022/11/11 01:37:42;;;;;;;6.75;3.38;;;;;;;;;;5014377;28;20021;-75
2022/11/11 01:40:08;;;;;;;6.60;3.17;;;;;;;;;;5014241;28;20029;-72
2022/11/11 01:42:47;;;;;;;5.70;2.85;;;;;;;;;;5016037;28;20404;-73
2022/11/11 01:45:31;;;;;;;5.15;2.65;;;;;;;;;;5031876;28;20095;-74
2022/11/11 01:50:42;;;;;;;6.50;3.08;;;;;;;;;;4990443;28;20042;-75
2022/11/11 01:53:07;;;;;;;4.82;2.97;;;;;;;;;;5030559;28;20028;-72
2022/11/11 01:55:32;;;;;;;6.57;3.03;;;;;;;;;;5030767;28;20083;-72
2022/11/11 01:58:04;;;;;;;9.73;3.33;;;;;;;;;;5030884;28;20104;-72
2022/11/11 02:00:29;;;;;;;6.82;3.00;;;;;;;;;;5032079;28;20272;-74
2022/11/11 02:02:59;;;;;;;6.05;3.00;;;;;;;;;;5029982;28;20033;-70
2022/11/11 02:05:44;;;;;;;7.05;3.03;;;;;;;;;;5029617;28;20033;-70
2022/11/11 02:08:32;;;;;;;6.45;2.80;;;;;;;;;;5029640;28;20025;-71
2022/11/11 02:14:34;;;;;;;6.03;3.20;;;;;;;;;;5025921;28;20029;-72
2022/11/11 02:16:50;;;;;;;6.43;3.00;;;;;;;;;;5031411;28;20026;-75
2022/11/11 02:19:17;;;;;;;7.88;3.08;;;;;;;;;;5013487;28;20465;-71
2022/11/11 02:21:47;;;;;;;4.72;2.78;;;;;;;;;;5013463;28;20037;-72
2022/11/11 02:24:15;;;;;;;6.78;2.90;;;;;;;;;;5029318;28;20033;-72
2022/11/11 02:26:41;;;;;;;6.15;2.72;;;;;;;;;;5030557;28;20353;-73
2022/11/11 02:29:10;;;;;;;5.97;2.90;;;;;;;;;;5042261;28;20033;-74
2022/11/11 02:31:35;;;;;;;9.55;3.30;;;;;;;;;;5031322;28;20028;-74
2022/11/11 02:34:00;;;;;;;3.97;2.40;;;;;;;;;;5012152;28;20107;-72
2022/11/11 02:36:25;;;;;;;6.07;3.07;;;;;;;;;;5030771;28;20033;-74
2022/11/11 02:38:51;;;;;;;8.88;3.08;;;;;;;;;;5031731;28;20280;-75
2022/11/11 02:44:00;;;;;;;5.88;3.28;;;;;;;;;;5028830;28;20022;-75
2022/11/11 02:46:25;;;;;;;7.97;2.83;;;;;;;;;;5012823;28;20045;-76
2022/11/11 02:48:50;;;;;;;5.67;3.10;;;;;;;;;;5031749;28;20073;-75
2022/11/11 02:51:16;;;;;;;4.53;2.42;;;;;;;;;;5029330;28;20810;-74
2022/11/11 02:53:41;;;;;;;6.97;2.80;;;;;;;;;;5031432;28;20037;-74
2022/11/11 02:56:06;;;;;;;4.67;2.37;;;;;;;;;;5028250;28;20087;-74
2022/11/11 02:58:32;;;;;;;5.07;2.30;;;;;;;;;;5029137;28;20318;-76
2022/11/11 03:00:57;;;;;;;4.57;2.53;;;;;;;;;;5024849;28;20412;-76
2022/11/11 03:03:22;;;;;;;5.43;2.30;;;;;;;;;;5020440;28;20119;-76
2022/11/11 03:05:47;;;;;;;6.40;3.17;;;;;;;;;;5030222;28;20380;-75
2022/11/11 03:08:12;;;;;;;5.30;2.83;;;;;;;;;;5013607;28;20345;-74
2022/11/11 03:10:38;;;;;;;5.87;2.60;;;;;;;;;;5011708;28;20292;-75
2022/11/11 03:13:03;;;;;;;6.40;2.73;;;;;;;;;;5030952;28;20284;-72
2022/11/11 03:15:28;;;;;;;7.20;2.60;;;;;;;;;;5030333;28;20283;-71
2022/11/11 03:17:53;;;;;;;5.67;2.93;;;;;;;;;;5029311;28;20345;-71
2022/11/11 03:23:07;;;;;;;4.47;2.78;;;;;;;;;;5029495;28;20285;-72
2022/11/11 03:25:38;;;;;;;4.70;2.47;;;;;;;;;;5030023;28;20547;-74
2022/11/11 03:28:04;;;;;;;4.20;2.75;;;;;;;;;;5030037;28;20048;-72
2022/11/11 03:30:30;;;;;;;7.93;2.95;;;;;;;;;;5013411;28;20116;-73
2022/11/11 03:32:55;;;;;;;6.03;2.63;;;;;;;;;;5015851;28;20101;-74
2022/11/11 03:35:20;;;;;;;8.88;2.95;;;;;;;;;;5016507;28;20029;-75
2022/11/11 03:40:29;;;;;;;4.65;2.67;;;;;;;;;;5033571;28;20042;-75
2022/11/11 03:42:55;;;;;;;5.27;2.90;;;;;;;;;;5033458;28;20044;-73
2022/11/11 03:45:20;;;;;;;4.72;2.70;;;;;;;;;;5034922;28;20283;-73
2022/11/11 03:47:45;;;;;;;5.53;3.10;;;;;;;;;;5032687;28;20057;-75
2022/11/11 03:50:10;;;;;;;4.55;2.65;;;;;;;;;;5034901;28;20264;-74
2022/11/11 03:52:39;;;;;;;4.65;2.83;;;;;;;;;;5016755;28;20021;-74
2022/11/11 03:55:05;;;;;;;5.23;2.90;;;;;;;;;;5033564;28;20037;-73
2022/11/11 03:57:30;;;;;;;4.80;2.67;;;;;;;;;;5033453;28;20041;-75
2022/11/11 03:59:55;;;;;;;5.60;2.83;;;;;;;;;;5034264;28;20040;-74
2022/11/11 04:10:33;;;;;;;6.18;3.05;;;;;;;;;;5048900;22;20046;-68
2022/11/11 04:23:54;;;;;;;6.97;3.20;;;;;;;;;;5047838;28;20021;-66
2022/11/11 04:26:19;;;;;;;4.95;2.85;;;;;;;;;;5047234;28;20471;-65
2022/11/11 04:31:28;;;;;;;7.22;2.97;;;;;;;;;;5053437;28;20276;-74
2022/11/11 04:33:53;;;;;;;3.83;2.53;;;;;;;;;;5052764;28;20047;-72
2022/11/11 04:36:18;;;;;;;9.63;3.23;;;;;;;;;;5052988;28;20283;-72
2022/11/11 04:41:27;;;;;;;6.57;3.13;;;;;;;;;;5046918;28;20366;-72
2022/11/11 04:46:37;;;;;;;7.05;3.00;;;;;;;;;;5043958;28;20762;-79
2022/11/11 04:49:02;;;;;;;3.60;2.33;;;;;;;;;;5052200;28;20044;-81
2022/11/11 04:52:25;;;;;;;6.40;2.60;;;;;;;;;;5039560;28;20268;-79
2022/11/11 04:54:12;;;;;;;6.88;2.97;;;;;;;;;;5053563;28;20033;-78
2022/11/11 04:56:46;;;;;;;3.33;2.40;;;;;;;;;;5045626;28;20109;-78
2022/11/11 04:59:19;;;;;;;6.32;2.53;;;;;;;;;;5045275;28;20033;-81
2022/11/11 05:04:28;;;;;;;6.53;2.50;;;;;;;;;;5053978;28;20033;-75
2022/11/11 05:09:37;;;;;;;6.03;3.35;;;;;;;;;;5053071;28;20029;-75
2022/11/11 05:12:02;;;;;;;6.33;3.00;;;;;;;;;;5049825;28;20024;-76
2022/11/11 05:22:40;;;;;;;17.08;4.22;;;;;;;;;;5051610;28;20025;-66
2022/11/11 05:25:24;;;;;;;4.85;2.90;;;;;;;;;;5052712;28;20039;-66
2022/11/11 05:27:49;;;;;;;6.40;2.72;;;;;;;;;;5049819;28;20037;-66
2022/11/11 05:30:15;;;;;;;4.70;2.72;;;;;;;;;;5052255;28;20033;-68
2022/11/11 05:32:41;;;;;;;8.23;2.95;;;;;;;;;;5051425;28;20104;-67
2022/11/11 05:35:07;;;;;;;4.78;2.72;;;;;;;;;;5052659;28;20121;-67
2022/11/11 05:37:32;;;;;;;6.88;3.20;;;;;;;;;;5050876;28;20127;-67
2022/11/11 05:39:57;;;;;;;4.30;3.03;;;;;;;;;;5053387;28;20476;-67
2022/11/11 05:42:23;;;;;;;3.87;2.63;;;;;;;;;;5050594;28;20366;-67
2022/11/11 05:44:48;;;;;;;5.10;3.07;;;;;;;;;;5034106;28;20297;-67
2022/11/11 05:47:13;;;;;;;5.00;3.15;;;;;;;;;;5050286;28;20303;-66
2022/11/11 05:49:38;;;;;;;8.73;3.00;;;;;;;;;;5052682;28;20032;-67
2022/11/11 05:52:04;;;;;;;7.30;3.73;;;;;;;;;;5049077;28;20062;-66
2022/11/11 05:54:29;;;;;;;6.55;3.13;;;;;;;;;;5028958;28;20370;-66
2022/11/11 05:56:54;;;;;;;9.90;2.87;;;;;;;;;;5045279;28;20483;-71
2022/11/11 05:59:20;;;;;;;5.85;3.05;;;;;;;;;;5051594;28;20363;-72
2022/11/11 06:01:45;;;;;;;7.87;3.60;;;;;;;;;;5052051;28;20029;-78
2022/11/11 06:04:10;;;;;;;6.73;3.47;;;;;;;;;;5051108;28;20271;-79
2022/11/11 06:06:36;;;;;;;7.17;3.80;;;;;;;;;;5050175;28;20291;-79
2022/11/11 06:09:01;;;;;;;8.52;3.40;;;;;;;;;;5050184;28;20268;-78
2022/11/11 06:11:27;;;;;;;9.60;3.97;;;;;;;;;;5027265;28;20087;-78
2022/11/11 06:13:52;;;;;;;5.40;3.00;;;;;;;;;;5050039;28;20017;-79
2022/11/11 06:16:18;;;;;;;6.10;3.30;;;;;;;;;;5044811;28;20028;-67
2022/11/11 06:18:43;;;;;;;9.90;4.15;;;;;;;;;;5050623;28;20486;-76
2022/11/11 06:21:08;;;;;;;9.02;3.35;;;;;;;;;;5051847;28;20033;-75
2022/11/11 06:23:34;;;;;;;10.40;3.83;;;;;;;;;;5050327;28;20021;-75
2022/11/11 06:26:15;;;;;;;8.03;4.70;;;;;;;;;;5050412;28;20029;-74
2022/11/11 06:28:51;;;;;;;6.97;3.90;;;;;;;;;;5047048;28;20358;-75
2022/11/11 06:31:20;;;;;;;6.50;3.88;;;;;;;;;;5051561;28;20079;-75
2022/11/11 06:33:45;;;;;;;8.00;4.28;;;;;;;;;;5050001;28;20027;-71
2022/11/11 06:36:12;;;;;;;8.50;4.07;;;;;;;;;;5050675;28;20131;-72
2022/11/11 06:38:37;;;;;;;8.43;3.55;;;;;;;;;;5050121;28;20271;-69
2022/11/11 06:41:03;;;;;;;7.75;3.78;;;;;;;;;;5050679;28;20036;-68
2022/11/11 06:43:28;;;;;;;6.57;3.55;;;;;;;;;;5033486;28;20025;-69
2022/11/11 06:45:54;;;;;;;14.63;4.13;;;;;;;;;;5036580;28;20033;-69
2022/11/11 06:48:19;;;;;;;7.40;4.32;;;;;;;;;;5051449;28;20480;-69
2022/11/11 06:50:45;;;;;;;9.75;3.88;;;;;;;;;;5050581;28;20357;-69
2022/11/11 06:53:11;;;;;;;7.38;4.25;;;;;;;;;;5050715;28;20055;-69
2022/11/11 06:55:37;;;;;;;8.93;3.88;;;;;;;;;;5050174;28;20017;-78
2022/11/11 06:58:06;;;;;;;6.35;3.72;;;;;;;;;;5036732;28;20099;-78
2022/11/11 07:00:31;;;;;;;8.57;4.05;;;;;;;;;;5049173;28;20059;-77
2022/11/11 07:02:56;;;;;;;7.93;3.78;;;;;;;;;;5051349;28;20032;-79
2022/11/11 07:05:22;;;;;;;5.77;3.73;;;;;;;;;;5049514;28;20082;-77
2022/11/11 07:07:47;;;;;;;11.67;4.43;;;;;;;;;;5050377;28;20295;-79
2022/11/11 07:10:13;;;;;;;9.50;4.10;;;;;;;;;;5047208;28;20739;-69
2022/11/11 07:12:41;;;;;;;6.00;3.45;;;;;;;;;;5043850;28;20833;-75
2022/11/11 07:15:06;;;;;;;7.15;4.43;;;;;;;;;;5049007;28;20029;-74
2022/11/11 07:17:32;;;;;;;6.75;3.78;;;;;;;;;;5049874;28;20032;-73
2022/11/11 07:19:57;;;;;;;7.13;3.92;;;;;;;;;;5048141;28;20409;-71
2022/11/11 07:22:22;;;;;;;8.70;4.43;;;;;;;;;;5050041;28;20052;-71
2022/11/11 07:24:47;;;;;;;6.30;3.60;;;;;;;;;;5050368;28;20686;-70
2022/11/11 07:27:12;;;;;;;7.17;4.03;;;;;;;;;;5047318;28;20629;-72
2022/11/11 07:29:38;;;;;;;7.40;4.30;;;;;;;;;;5046970;28;20760;-79
2022/11/11 07:34:35;;;;;;;12.80;4.65;;;;;;;;;;5025714;28;20358;-74
2022/11/11 07:37:00;;;;;;;11.57;4.87;;;;;;;;;;5026762;28;20049;-75
2022/11/11 07:39:25;;;;;;;7.28;4.43;;;;;;;;;;5030846;28;20284;-74
2022/11/11 07:41:50;;;;;;;11.53;5.27;;;;;;;;;;5009146;28;20495;-77
2022/11/11 07:44:15;;;;;;;8.13;4.85;;;;;;;;;;5030106;28;20772;-73
2022/11/11 07:46:41;;;;;;;10.77;5.22;;;;;;;;;;5028664;28;20029;-73
2022/11/11 07:49:06;;;;;;;8.88;4.97;;;;;;;;;;5030424;28;20018;-73
2022/11/11 07:51:31;;;;;;;10.02;5.82;;;;;;;;;;5025484;28;20060;-73
2022/11/11 07:53:57;;;;;;;9.67;5.33;;;;;;;;;;5011930;28;20468;-71
2022/11/11 07:56:22;;;;;;;7.40;4.88;;;;;;;;;;5011731;28;20635;-72
2022/11/11 07:58:47;;;;;;;6.20;4.53;;;;;;;;;;5027927;28;20065;-70
2022/11/11 08:01:12;;;;;;;13.40;5.40;;;;;;;;;;5028563;28;20022;-73
2022/11/11 08:03:48;;;;;;;8.95;5.15;;;;;;;;;;5029481;28;20719;-73
2022/11/11 08:06:14;;;;;;;8.27;4.53;;;;;;;;;;5030842;28;20026;-71
2022/11/11 08:08:39;;;;;;;10.98;5.60;;;;;;;;;;5025707;28;20029;-69
2022/11/11 08:11:05;;;;;;;12.17;5.63;;;;;;;;;;5027183;28;20029;-70
2022/11/11 08:13:40;;;;;;;10.65;5.20;;;;;;;;;;5019542;28;20276;-71
2022/11/11 08:16:13;;;;;;;6.60;4.47;;;;;;;;;;5026170;28;20022;-70
2022/11/11 08:18:39;;;;;;;10.57;6.25;;;;;;;;;;5026076;28;20035;-70
2022/11/11 08:21:04;;;;;;;10.40;6.03;;;;;;;;;;5016825;28;20124;-70
2022/11/11 08:23:33;;;;;;;10.70;4.50;;;;;;;;;;5010474;28;20492;-72
2022/11/11 08:26:02;;;;;;;8.73;4.60;;;;;;;;;;5031883;28;20037;-75
2022/11/11 08:28:28;;;;;;;12.98;5.03;;;;;;;;;;5032114;28;20071;-71
2022/11/11 08:30:54;;;;;;;10.77;5.15;;;;;;;;;;5034235;28;20064;-70
2022/11/11 08:33:19;;;;;;;12.15;5.20;;;;;;;;;;5033092;28;20033;-70
2022/11/11 08:35:44;;;;;;;11.43;4.78;;;;;;;;;;5033420;28;20033;-70
2022/11/11 08:38:10;;;;;;;12.43;5.13;;;;;;;;;;5011491;28;20033;-76
2022/11/11 08:40:35;;;;;;;12.57;5.45;;;;;;;;;;5014969;28;20275;-73
2022/11/11 08:43:00;;;;;;;8.05;4.55;;;;;;;;;;5032411;28;20029;-74
2022/11/11 08:45:25;;;;;;;11.53;5.20;;;;;;;;;;5014496;28;20025;-68
2022/11/11 08:47:51;;;;;;;8.73;4.87;;;;;;;;;;5033449;28;20290;-67
2022/11/11 08:50:16;;;;;;;9.23;5.03;;;;;;;;;;5031162;28;20276;-68
2022/11/11 08:52:45;;;;;;;6.50;4.57;;;;;;;;;;5033563;28;20091;-71
2022/11/11 08:55:11;;;;;;;10.85;5.50;;;;;;;;;;5012855;28;20484;-71
2022/11/11 08:57:36;;;;;;;10.60;5.30;;;;;;;;;;5031003;28;20036;-72
2022/11/11 09:00:03;;;;;;;8.93;4.90;;;;;;;;;;5031340;28;20312;-84
2022/11/11 09:02:28;;;;;;;12.90;5.10;;;;;;;;;;5033333;28;20276;-83
2022/11/11 09:04:53;;;;;;;8.73;4.97;;;;;;;;;;5014528;28;20504;-76
2022/11/11 09:07:18;;;;;;;17.50;5.13;;;;;;;;;;5034324;28;20814;-75
2022/11/11 09:09:43;;;;;;;8.07;4.60;;;;;;;;;;5030355;28;20037;-75
2022/11/11 09:12:09;;;;;;;12.73;6.13;;;;;;;;;;5014028;28;20280;-75
2022/11/11 09:14:34;;;;;;;9.37;4.10;;;;;;;;;;5014571;28;20028;-75
2022/11/11 09:16:59;;;;;;;8.63;4.70;;;;;;;;;;5030549;28;20276;-76
2022/11/11 09:19:24;;;;;;;12.63;5.10;;;;;;;;;;5014663;28;20083;-87
2022/11/11 09:21:51;;;;;;;8.30;4.80;;;;;;;;;;5030975;28;20275;-76
2022/11/11 09:24:17;;;;;;;9.07;4.85;;;;;;;;;;5014724;28;20290;-86
2022/11/11 09:26:42;;;;;;;11.80;4.57;;;;;;;;;;5013473;28;20551;-85
2022/11/11 09:29:07;;;;;;;8.77;5.17;;;;;;;;;;5022400;28;20654;-84
2022/11/11 09:31:32;;;;;;;11.77;4.80;;;;;;;;;;5032123;28;20649;-85
2022/11/11 09:33:57;;;;;;;6.67;4.17;;;;;;;;;;5031645;28;20045;-85
2022/11/11 09:36:23;;;;;;;10.68;3.65;;;;;;;;;;5013599;28;20268;-84
2022/11/11 09:38:48;;;;;;;9.93;4.57;;;;;;;;;;5014820;28;20035;-75
2022/11/11 09:41:30;;;;;;;9.23;4.57;;;;;;;;;;5012081;28;20472;-73
2022/11/11 09:43:56;;;;;;;10.57;4.57;;;;;;;;;;5032737;28;20124;-71
2022/11/11 09:46:25;;;;;;;9.95;5.00;;;;;;;;;;5012784;28;20084;-72
2022/11/11 09:48:50;;;;;;;9.13;4.00;;;;;;;;;;5032683;28;20044;-74
2022/11/11 09:51:24;;;;;;;8.63;3.93;;;;;;;;;;5012627;28;20104;-72
2022/11/11 09:53:57;;;;;;;9.68;5.45;;;;;;;;;;5032554;28;20363;-72
2022/11/11 09:56:25;;;;;;;9.02;4.28;;;;;;;;;;5029822;28;20139;-86
2022/11/11 09:58:52;;;;;;;9.18;4.65;;;;;;;;;;5012565;28;20076;-83
2022/11/11 10:01:24;;;;;;;10.48;4.05;;;;;;;;;;5014468;28;20092;-85
2022/11/11 10:04:09;;;;;;;6.90;4.35;;;;;;;;;;5029990;28;20030;-86
2022/11/11 10:06:35;;;;;;;9.10;4.38;;;;;;;;;;5002490;28;20065;-85
2022/11/11 10:09:13;;;;;;;7.45;4.22;;;;;;;;;;5014115;28;20076;-85
2022/11/11 10:11:47;;;;;;;11.82;4.45;;;;;;;;;;5013694;28;20112;-84
2022/11/11 10:14:12;;;;;;;7.78;4.32;;;;;;;;;;5013812;28;20029;-82
2022/11/11 10:16:40;;;;;;;10.25;3.92;;;;;;;;;;5031913;28;20044;-75
2022/11/11 10:19:16;;;;;;;11.50;4.25;;;;;;;;;;5030436;28;20030;-69
2022/11/11 10:21:44;;;;;;;9.82;4.05;;;;;;;;;;5025705;28;20036;-69
2022/11/11 10:24:21;;;;;;;7.43;3.75;;;;;;;;;;5030214;28;20518;-69
2022/11/11 10:26:46;;;;;;;6.97;4.07;;;;;;;;;;5025780;28;20464;-69
2022/11/11 10:29:16;;;;;;;7.28;3.88;;;;;;;;;;5030519;28;20029;-70
2022/11/11 10:31:42;;;;;;;7.72;3.42;;;;;;;;;;5025130;28;20048;-69
2022/11/11 10:34:11;;;;;;;6.47;3.35;;;;;;;;;;5011926;28;20033;-84
2022/11/11 10:36:42;;;;;;;9.98;3.40;;;;;;;;;;5027354;28;20025;-76
2022/11/11 10:39:09;;;;;;;9.77;4.22;;;;;;;;;;5013305;28;20025;-76
2022/11/11 10:41:48;;;;;;;8.02;3.25;;;;;;;;;;5012846;28;20029;-76
2022/11/11 10:44:26;;;;;;;9.48;3.63;;;;;;;;;;5012741;28;20026;-76
2022/11/11 10:46:57;;;;;;;8.10;4.10;;;;;;;;;;5011775;28;20040;-78
2022/11/11 10:49:23;;;;;;;8.88;5.03;;;;;;;;;;5027558;28;20071;-78
2022/11/11 10:51:51;;;;;;;7.88;4.85;;;;;;;;;;5028659;28;20033;-73
2022/11/11 10:54:25;;;;;;;16.23;7.60;;;;;;;;;;5030618;28;20033;-78
2022/11/11 10:56:54;;;;;;;11.48;5.45;;;;;;;;;;5025821;28;20047;-72
2022/11/11 10:59:38;;;;;;;13.00;5.50;;;;;;;;;;5030437;28;20029;-73
2022/11/11 11:02:12;;;;;;;11.77;5.65;;;;;;;;;;5025689;28;20055;-72
2022/11/11 11:05:13;;;;;;;8.80;4.60;;;;;;;;;;5029351;28;20035;-73
2022/11/11 11:07:44;;;;;;;13.70;5.45;;;;;;;;;;4950168;29;20051;-73
2022/11/11 11:10:32;;;;;;;9.93;4.85;;;;;;;;;;5003524;28;20547;-85
2022/11/11 11:13:00;;;;;;;8.07;5.28;;;;;;;;;;5029967;28;20049;-75
2022/11/11 11:15:27;;;;;;;13.90;5.37;;;;;;;;;;5029860;28;20033;-74
2022/11/11 11:17:57;;;;;;;10.48;5.53;;;;;;;;;;5030803;28;20464;-75
2022/11/11 11:20:23;;;;;;;13.40;5.40;;;;;;;;;;5012048;28;20036;-76
2022/11/11 11:22:49;;;;;;;11.15;5.65;;;;;;;;;;5030703;28;20041;-76
2022/11/11 11:25:15;;;;;;;10.10;5.57;;;;;;;;;;5030305;28;20022;-75
2022/11/11 11:27:40;;;;;;;12.55;5.15;;;;;;;;;;5029539;28;20500;-75
2022/11/11 11:30:12;;;;;;;9.95;4.47;;;;;;;;;;5028159;28;20033;-80
2022/11/11 11:32:37;;;;;;;8.40;5.40;;;;;;;;;;5030589;28;20033;-81
2022/11/11 11:35:03;;;;;;;14.73;5.82;;;;;;;;;;5013765;28;20059;-81
2022/11/11 11:37:28;;;;;;;12.55;6.25;;;;;;;;;;5014251;28;20490;-81
2022/11/11 11:40:04;;;;;;;11.30;5.97;;;;;;;;;;5013456;28;20164;-82
2022/11/11 11:42:31;;;;;;;12.77;5.45;;;;;;;;;;5011312;28;20030;-82
2022/11/11 11:44:56;;;;;;;9.95;4.97;;;;;;;;;;5013483;28;20022;-80
2022/11/11 11:47:22;;;;;;;9.55;5.38;;;;;;;;;;5029743;28;20114;-74
2022/11/11 11:50:02;;;;;;;11.80;4.70;;;;;;;;;;5030634;28;20036;-75
2022/11/11 11:52:27;;;;;;;9.85;5.57;;;;;;;;;;5012609;28;20021;-76
2022/11/11 11:54:57;;;;;;;11.07;5.83;;;;;;;;;;5016026;28;20056;-76
2022/11/11 11:57:28;;;;;;;7.07;4.30;;;;;;;;;;5009314;28;20300;-78
2022/11/11 11:59:53;;;;;;;10.35;5.30;;;;;;;;;;5033206;28;20025;-77
2022/11/11 12:02:33;;;;;;;10.97;4.77;;;;;;;;;;5014618;28;20203;-75
2022/11/11 12:05:04;;;;;;;10.93;4.32;;;;;;;;;;5015405;28;20034;-74
2022/11/11 12:07:47;;;;;;;13.80;4.38;;;;;;;;;;5033334;28;20044;-85
2022/11/11 12:10:16;;;;;;;7.82;4.63;;;;;;;;;;5016535;28;20092;-82
2022/11/11 12:12:47;;;;;;;11.93;4.88;;;;;;;;;;5015002;28;20033;-82
2022/11/11 12:15:27;;;;;;;11.93;5.97;;;;;;;;;;5033460;28;20033;-82
2022/11/11 12:18:13;;;;;;;9.15;5.28;;;;;;;;;;5015054;28;20083;-81
2022/11/11 12:20:47;;;;;;;8.63;5.00;;;;;;;;;;5018289;28;20193;-83
2022/11/11 12:23:19;;;;;;;13.02;6.05;;;;;;;;;;5013549;28;20465;-82
2022/11/11 12:25:53;;;;;;;10.85;5.20;;;;;;;;;;5015607;28;20041;-76
2022/11/11 12:28:21;;;;;;;10.30;6.28;;;;;;;;;;5031648;28;20037;-75
2022/11/11 12:30:50;;;;;;;13.95;5.82;;;;;;;;;;5034023;28;20432;-74
2022/11/11 12:33:15;;;;;;;12.43;5.47;;;;;;;;;;5032737;28;20029;-74
2022/11/11 12:35:43;;;;;;;11.53;6.63;;;;;;;;;;5015582;28;20084;-76
2022/11/11 12:38:19;;;;;;;13.27;5.65;;;;;;;;;;5014392;28;20136;-74
2022/11/11 12:41:03;;;;;;;11.35;6.00;;;;;;;;;;5031725;28;20029;-74
2022/11/11 12:43:31;;;;;;;11.02;5.60;;;;;;;;;;5014742;28;20133;-70
2022/11/11 12:46:03;;;;;;;13.80;5.15;;;;;;;;;;5033617;28;20036;-69
2022/11/11 12:48:28;;;;;;;7.60;5.00;;;;;;;;;;5032635;28;20033;-69
2022/11/11 12:51:06;;;;;;;9.63;5.13;;;;;;;;;;5033920;28;20527;-69
2022/11/11 12:53:52;;;;;;;11.50;5.90;;;;;;;;;;5029398;28;20665;-71
2022/11/11 12:56:23;;;;;;;9.77;6.05;;;;;;;;;;5033529;28;20033;-68
2022/11/11 12:58:59;;;;;;;9.23;4.78;;;;;;;;;;5022504;28;20025;-69
2022/11/11 13:01:49;;;;;;;15.07;6.10;;;;;;;;;;5034072;28;20034;-84
2022/11/11 13:04:28;;;;;;;13.98;6.13;;;;;;;;;;5015115;28;20017;-73
2022/11/11 13:06:54;;;;;;;10.93;5.60;;;;;;;;;;5032251;28;20037;-72
2022/11/11 13:09:28;;;;;;;12.13;6.10;;;;;;;;;;5031638;28;20495;-74
2022/11/11 13:12:32;;;;;;;10.60;5.88;;;;;;;;;;5032181;28;20278;-74
2022/11/11 13:14:57;;;;;;;11.60;5.80;;;;;;;;;;4948529;28;20023;-72
2022/11/11 13:17:23;;;;;;;9.20;5.20;;;;;;;;;;4941935;29;20034;-74
2022/11/11 13:19:49;;;;;;;8.80;4.95;;;;;;;;;;4984922;28;20073;-83
2022/11/11 13:22:21;;;;;;;16.63;5.72;;;;;;;;;;5015203;28;20025;-83
2022/11/11 13:24:46;;;;;;;9.27;5.30;;;;;;;;;;5030854;28;20484;-83
2022/11/11 13:27:14;;;;;;;10.45;5.45;;;;;;;;;;5031605;28;20093;-85
2022/11/11 13:29:55;;;;;;;11.43;4.93;;;;;;;;;;5031340;28;20040;-83
2022/11/11 13:32:23;;;;;;;11.70;6.32;;;;;;;;;;5032936;28;20033;-84
2022/11/11 13:34:49;;;;;;;12.77;6.05;;;;;;;;;;5030285;28;20045;-83
2022/11/11 13:37:20;;;;;;;12.95;5.63;;;;;;;;;;5028623;28;20377;-83
2022/11/11 13:39:46;;;;;;;14.20;5.90;;;;;;;;;;5032055;28;20036;-77
2022/11/11 13:42:18;;;;;;;11.15;6.55;;;;;;;;;;5014160;28;20473;-75
2022/11/11 13:44:57;;;;;;;13.50;5.57;;;;;;;;;;5031688;28;20476;-74
2022/11/11 13:47:32;;;;;;;10.93;5.00;;;;;;;;;;5031657;28;20025;-76
2022/11/11 13:50:08;;;;;;;10.02;5.55;;;;;;;;;;5032330;28;20295;-73
2022/11/11 13:52:35;;;;;;;11.48;5.78;;;;;;;;;;5014332;28;20065;-74
2022/11/11 13:55:02;;;;;;;11.23;5.50;;;;;;;;;;5031175;28;20120;-74
2022/11/11 13:57:30;;;;;;;10.38;5.05;;;;;;;;;;5013275;28;20021;-74
2022/11/11 14:00:06;;;;;;;12.82;5.82;;;;;;;;;;5031224;28;20375;-68
2022/11/11 14:02:32;;;;;;;10.98;5.55;;;;;;;;;;5031566;28;20029;-69
2022/11/11 14:05:01;;;;;;;10.07;5.43;;;;;;;;;;5031781;28;20452;-69
2022/11/11 14:07:47;;;;;;;10.85;6.00;;;;;;;;;;5030707;28;20034;-69
2022/11/11 14:10:15;;;;;;;16.45;5.47;;;;;;;;;;5032601;28;20025;-69
2022/11/11 14:12:49;;;;;;;9.70;5.65;;;;;;;;;;5031324;28;20120;-71
2022/11/11 14:15:34;;;;;;;9.68;5.03;;;;;;;;;;5030619;28;20025;-76
2022/11/11 14:17:59;;;;;;;11.57;5.45;;;;;;;;;;5023964;28;20061;-83
2022/11/11 14:20:35;;;;;;;11.25;5.20;;;;;;;;;;5014755;28;20064;-83
2022/11/11 14:23:20;;;;;;;10.15;4.80;;;;;;;;;;5007254;28;20025;-87
2022/11/11 14:25:48;;;;;;;8.68;4.60;;;;;;;;;;5030664;28;20044;-81
2022/11/11 14:28:26;;;;;;;15.20;6.20;;;;;;;;;;5024719;28;20091;-76
2022/11/11 14:30:52;;;;;;;12.07;4.75;;;;;;;;;;5015843;28;20087;-70
2022/11/11 14:33:38;;;;;;;11.23;4.78;;;;;;;;;;5025849;28;20025;-68
2022/11/11 14:36:06;;;;;;;12.60;5.55;;;;;;;;;;4988994;28;20037;-75
2022/11/11 14:38:49;;;;;;;7.63;4.82;;;;;;;;;;5018804;28;20508;-74
2022/11/11 14:41:33;;;;;;;11.43;5.18;;;;;;;;;;5027851;28;20076;-73
2022/11/11 14:44:18;;;;;;;10.35;5.20;;;;;;;;;;5023498;28;20063;-73
2022/11/11 14:47:02;;;;;;;10.80;4.95;;;;;;;;;;5029419;28;20025;-72
2022/11/11 14:49:44;;;;;;;7.68;4.85;;;;;;;;;;5028953;28;20049;-74
2022/11/11 14:52:18;;;;;;;9.10;4.25;;;;;;;;;;5030577;28;20033;-65
2022/11/11 14:54:58;;;;;;;12.95;6.07;;;;;;;;;;5029214;28;20601;-76
2022/11/11 14:57:24;;;;;;;9.13;4.70;;;;;;;;;;5029110;28;20021;-78
2022/11/11 14:59:50;;;;;;;13.35;8.07;;;;;;;;;;5022998;28;20065;-79
2022/11/11 15:02:26;;;;;;;15.80;7.70;;;;;;;;;;5029553;28;20071;-75
2022/11/11 15:04:51;;;;;;;13.00;6.68;;;;;;;;;;5029708;28;20025;-78
2022/11/11 15:07:30;;;;;;;10.05;5.30;;;;;;;;;;5031017;28;20037;-70
2022/11/11 15:10:01;;;;;;;11.87;5.40;;;;;;;;;;5012049;28;20060;-68
2022/11/11 15:12:36;;;;;;;9.98;4.68;;;;;;;;;;5029094;28;20229;-68
2022/11/11 15:15:04;;;;;;;11.27;5.20;;;;;;;;;;5024198;28;20117;-71
2022/11/11 15:17:29;;;;;;;13.48;5.40;;;;;;;;;;5030871;28;20111;-69
2022/11/11 15:20:03;;;;;;;11.63;4.80;;;;;;;;;;5030062;28;20033;-69
2022/11/11 15:22:35;;;;;;;9.52;4.60;;;;;;;;;;5030810;28;20391;-68
2022/11/11 15:25:10;;;;;;;8.20;4.45;;;;;;;;;;5029282;28;20091;-76
2022/11/11 15:27:39;;;;;;;10.35;4.93;;;;;;;;;;5015795;28;20056;-84
2022/11/11 15:30:24;;;;;;;10.38;4.68;;;;;;;;;;5013200;28;20476;-75
2022/11/11 15:33:08;;;;;;;9.20;4.95;;;;;;;;;;5027871;28;20048;-71
2022/11/11 15:35:43;;;;;;;13.25;5.50;;;;;;;;;;5032822;28;20021;-70
2022/11/11 15:38:11;;;;;;;10.52;5.47;;;;;;;;;;5015791;28;20033;-70
2022/11/11 15:40:49;;;;;;;11.40;5.15;;;;;;;;;;5034741;28;20086;-69
2022/11/11 15:43:17;;;;;;;10.73;5.20;;;;;;;;;;5014595;28;20025;-69
2022/11/11 15:45:42;;;;;;;12.98;6.53;;;;;;;;;;5029457;28;20033;-69
2022/11/11 15:48:16;;;;;;;13.98;4.88;;;;;;;;;;5031470;28;20044;-70
2022/11/11 15:50:42;;;;;;;9.23;4.22;;;;;;;;;;5024938;28;20040;-80
2022/11/11 15:53:10;;;;;;;7.63;4.32;;;;;;;;;;5013809;28;20025;-71
2022/11/11 15:55:36;;;;;;;10.38;5.40;;;;;;;;;;5013571;28;20108;-74
2022/11/11 15:58:14;;;;;;;9.95;4.70;;;;;;;;;;5033196;28;20420;-71
2022/11/11 16:00:39;;;;;;;10.98;5.30;;;;;;;;;;5032371;28;20054;-72
2022/11/11 16:03:05;;;;;;;10.15;4.60;;;;;;;;;;5032387;28;20029;-73